createdAt,value
2023-02-15T00:02:04.746Z,15.08
2023-02-15T00:04:49.473Z,14.75
2023-02-15T00:07:19.887Z,15.29
2023-02-15T00:09:53.005Z,14.83
2023-02-15T00:12:22.847Z,15.42
2023-02-15T00:14:55.286Z,14.88
2023-02-15T00:17:28.211Z,15.28
2023-02-15T00:19:57.953Z,14.98
2023-02-15T00:22:28.282Z,15.12
2023-02-15T00:25:00.636Z,15.60
2023-02-15T00:27:30.429Z,15.68
2023-02-15T00:30:05.388Z,15.65
2023-02-15T00:32:35.290Z,15.86
2023-02-15T00:35:05.070Z,15.89
2023-02-15T00:37:34.822Z,15.98
2023-02-15T00:40:05.003Z,16.49
2023-02-15T00:42:37.317Z,16.65
2023-02-15T00:45:07.475Z,16.17
2023-02-15T00:47:37.192Z,16.56
2023-02-15T00:50:08.188Z,16.76
2023-02-15T00:52:40.510Z,16.05
2023-02-15T00:55:10.612Z,16.69
2023-02-15T00:57:40.252Z,16.20
2023-02-15T01:00:10.602Z,16.31
2023-02-15T01:02:43.590Z,16.52
2023-02-15T01:05:16.212Z,17.20
2023-02-15T01:07:53.012Z,16.72
2023-02-15T01:10:29.114Z,16.94
2023-02-15T01:12:59.241Z,16.58
2023-02-15T01:15:31.967Z,17.16
2023-02-15T01:18:01.742Z,16.85
2023-02-15T01:20:31.963Z,16.62
2023-02-15T01:23:01.913Z,17.21
2023-02-15T01:25:32.118Z,16.44
2023-02-15T01:28:01.827Z,16.97
2023-02-15T01:30:33.909Z,16.22
2023-02-15T01:33:09.092Z,17.00
2023-02-15T01:35:40.235Z,17.14
2023-02-15T01:38:09.971Z,16.81
2023-02-15T01:40:41.262Z,17.47
2023-02-15T01:43:14.762Z,16.79
2023-02-15T01:45:46.897Z,16.61
2023-02-15T01:48:30.414Z,16.88
2023-02-15T01:51:01.794Z,16.60
2023-02-15T01:53:45.511Z,16.99
2023-02-15T01:56:33.103Z,16.61
2023-02-15T01:59:14.819Z,17.14
2023-02-15T02:01:44.511Z,17.23
2023-02-15T02:04:47.833Z,16.63
2023-02-15T02:07:18.828Z,16.96
2023-02-15T02:09:48.502Z,16.50
2023-02-15T02:12:19.724Z,16.78
2023-02-15T02:14:49.552Z,16.81
2023-02-15T02:17:37.562Z,17.21
2023-02-15T02:20:26.001Z,16.93
2023-02-15T02:23:01.851Z,17.11
2023-02-15T02:25:57.561Z,16.68
2023-02-15T02:28:48.477Z,17.33
2023-02-15T02:31:18.185Z,16.84
2023-02-15T02:33:47.847Z,16.96
2023-02-15T02:36:35.714Z,16.93
2023-02-15T02:39:32.250Z,16.64
2023-02-15T02:42:05.176Z,16.56
2023-02-15T02:44:52.126Z,16.95
2023-02-15T02:47:33.033Z,16.98
2023-02-15T02:50:08.286Z,16.55
2023-02-15T02:52:48.918Z,16.73
2023-02-15T02:55:27.455Z,16.50
2023-02-15T02:58:11.439Z,16.05
2023-02-15T03:01:13.072Z,16.45
2023-02-15T03:03:46.796Z,16.83
2023-02-15T03:06:36.447Z,16.99
2023-02-15T03:09:16.859Z,16.61
2023-02-15T03:11:52.301Z,16.26
2023-02-15T03:14:22.140Z,16.83
2023-02-15T03:16:51.917Z,16.41
2023-02-15T03:19:33.174Z,16.87
2023-02-15T03:22:14.271Z,16.74
2023-02-15T03:24:49.813Z,16.47
2023-02-15T03:27:27.846Z,16.82
2023-02-15T03:29:59.792Z,16.52
2023-02-15T03:32:30.933Z,16.52
2023-02-15T03:35:00.879Z,16.65
2023-02-15T03:37:49.690Z,17.12
2023-02-15T03:40:44.929Z,16.79
2023-02-15T03:43:32.832Z,16.77
2023-02-15T03:46:08.720Z,16.96
2023-02-15T03:48:43.720Z,16.70
2023-02-15T03:51:33.924Z,16.95
2023-02-15T03:54:12.000Z,17.00
2023-02-15T03:56:46.945Z,17.24
2023-02-15T03:59:34.679Z,17.42
2023-02-15T04:02:22.872Z,16.70
2023-02-15T04:04:52.676Z,17.01
2023-02-15T04:07:25.038Z,16.99
2023-02-15T04:10:13.064Z,17.42
2023-02-15T04:12:45.811Z,17.24
2023-02-15T04:15:36.524Z,16.84
2023-02-15T04:18:09.763Z,17.22
2023-02-15T04:20:57.546Z,17.08
2023-02-15T04:23:53.137Z,16.81
2023-02-15T04:26:22.853Z,17.67
2023-02-15T04:28:52.594Z,17.27
2023-02-15T04:31:22.504Z,17.54
2023-02-15T04:33:52.315Z,17.64
2023-02-15T04:36:22.116Z,17.74
2023-02-15T04:39:04.125Z,17.44
2023-02-15T04:41:33.969Z,17.25
2023-02-15T04:44:03.858Z,17.19
2023-02-15T04:46:33.770Z,18.01
2023-02-15T04:49:03.671Z,17.26
2023-02-15T04:51:33.669Z,17.26
2023-02-15T04:54:03.593Z,17.49
2023-02-15T04:56:37.477Z,17.35
2023-02-15T04:59:07.195Z,17.05
2023-02-15T05:01:37.178Z,17.33
2023-02-15T05:04:07.096Z,17.41
2023-02-15T05:06:37.203Z,17.22
2023-02-15T05:09:07.118Z,17.37
2023-02-15T05:11:36.842Z,17.79
2023-02-15T05:14:06.699Z,17.31
2023-02-15T05:16:36.513Z,17.62
2023-02-15T05:19:06.326Z,17.18
2023-02-15T05:21:41.316Z,17.71
2023-02-15T05:24:29.195Z,17.82
2023-02-15T05:27:17.158Z,16.93
2023-02-15T05:29:46.872Z,17.87
2023-02-15T05:32:17.324Z,17.52
2023-02-15T05:34:47.201Z,17.73
2023-02-15T05:37:17.024Z,17.32
2023-02-15T05:39:46.837Z,17.71
2023-02-15T05:42:16.595Z,17.88
2023-02-15T05:44:46.285Z,17.37
2023-02-15T05:47:16.014Z,17.31
2023-02-15T05:49:48.615Z,17.99
2023-02-15T05:52:18.325Z,17.37
2023-02-15T05:54:50.628Z,18.12
2023-02-15T05:57:20.438Z,17.25
2023-02-15T05:59:50.420Z,17.35
2023-02-15T06:02:20.233Z,17.94
2023-02-15T06:04:52.644Z,18.25
2023-02-15T06:07:22.870Z,18.65
2023-02-15T06:09:52.698Z,18.12
2023-02-15T06:12:22.352Z,18.28
2023-02-15T06:14:51.966Z,18.29
2023-02-15T06:17:21.772Z,18.36
2023-02-15T06:19:51.420Z,18.04
2023-02-15T06:22:25.080Z,18.22
2023-02-15T06:24:56.980Z,18.34
2023-02-15T06:27:26.770Z,17.81
2023-02-15T06:29:56.584Z,17.81
2023-02-15T06:32:26.531Z,17.76
2023-02-15T06:34:59.154Z,17.86
2023-02-15T06:37:28.973Z,17.18
2023-02-15T06:39:58.717Z,17.01
2023-02-15T06:42:28.527Z,17.16
2023-02-15T06:44:58.352Z,16.39
2023-02-15T06:47:28.124Z,16.59
2023-02-15T06:49:57.863Z,16.42
2023-02-15T06:52:27.657Z,16.13
2023-02-15T06:55:00.458Z,15.91
2023-02-15T06:57:30.269Z,15.77
2023-02-15T07:00:04.141Z,16.41
2023-02-15T07:02:34.174Z,15.91
2023-02-15T07:05:07.762Z,16.67
2023-02-15T07:07:37.983Z,15.48
2023-02-15T07:10:08.807Z,15.86
2023-02-15T07:12:44.870Z,15.81
2023-02-15T07:15:18.922Z,15.81
2023-02-15T07:17:51.779Z,15.52
2023-02-15T07:20:27.361Z,16.01
2023-02-15T07:22:57.027Z,15.41
2023-02-15T07:25:26.689Z,15.20
2023-02-15T07:28:03.863Z,15.86
2023-02-15T07:30:33.812Z,15.49
2023-02-15T07:33:21.499Z,15.48
2023-02-15T07:35:55.888Z,15.55
2023-02-15T07:38:37.324Z,15.75
2023-02-15T07:41:11.028Z,15.61
2023-02-15T07:43:42.939Z,15.56
2023-02-15T07:46:19.909Z,15.43
2023-02-15T07:48:49.504Z,15.52
2023-02-15T07:51:19.140Z,15.32
2023-02-15T07:53:49.695Z,15.93
2023-02-15T07:56:19.415Z,15.96
2023-02-15T07:58:55.307Z,15.05
2023-02-15T08:01:38.343Z,15.74
2023-02-15T08:04:08.929Z,14.89
2023-02-15T08:06:39.233Z,15.39
2023-02-15T08:09:09.725Z,15.40
2023-02-15T08:11:41.971Z,15.11
2023-02-15T08:14:11.628Z,15.81
2023-02-15T08:16:57.770Z,15.60
2023-02-15T08:19:34.479Z,15.70
2023-02-15T08:22:06.596Z,16.02
2023-02-15T08:24:39.537Z,16.08
2023-02-15T08:27:10.142Z,16.26
2023-02-15T08:29:40.525Z,15.67
2023-02-15T08:32:11.847Z,16.47
2023-02-15T08:34:45.476Z,16.70
2023-02-15T08:37:15.233Z,16.65
2023-02-15T08:39:45.974Z,16.19
2023-02-15T08:42:16.300Z,16.66
2023-02-15T08:44:46.222Z,16.08
2023-02-15T08:47:18.504Z,16.02
2023-02-15T08:49:48.213Z,16.67
2023-02-15T08:52:17.921Z,17.21
2023-02-15T08:54:47.604Z,17.31
2023-02-15T08:57:17.417Z,16.33
2023-02-15T08:59:47.120Z,17.40
2023-02-15T09:02:16.875Z,16.78
2023-02-15T09:04:46.643Z,17.13
2023-02-15T09:07:19.126Z,17.33
2023-02-15T09:09:49.838Z,16.79
2023-02-15T09:12:19.532Z,16.69
2023-02-15T09:14:49.193Z,17.00
2023-02-15T09:17:18.895Z,17.03
2023-02-15T09:19:51.725Z,17.14
2023-02-15T09:22:21.402Z,17.39
2023-02-15T09:24:53.673Z,17.09
2023-02-15T09:27:23.422Z,17.48
2023-02-15T09:29:53.057Z,17.32
2023-02-15T09:32:23.602Z,17.36
2023-02-15T09:34:53.222Z,17.19
2023-02-15T09:37:22.908Z,17.00
2023-02-15T09:39:52.660Z,17.53
2023-02-15T09:42:28.258Z,16.92
2023-02-15T09:45:09.386Z,17.26
2023-02-15T09:47:47.952Z,17.17
2023-02-15T09:50:38.960Z,16.99
2023-02-15T09:53:26.624Z,17.26
2023-02-15T09:56:21.034Z,17.74
2023-02-15T09:59:06.366Z,17.59
2023-02-15T10:01:51.027Z,17.11
2023-02-15T10:04:44.429Z,17.29
2023-02-15T10:07:17.860Z,17.26
2023-02-15T10:09:53.633Z,17.62
2023-02-15T10:12:41.535Z,17.34
2023-02-15T10:15:26.589Z,17.75
2023-02-15T10:17:56.180Z,17.50
2023-02-15T10:20:37.035Z,17.60
2023-02-15T10:23:09.657Z,17.78
2023-02-15T10:25:45.537Z,18.06
2023-02-15T10:28:29.889Z,17.60
2023-02-15T10:31:18.718Z,17.56
2023-02-15T10:33:48.510Z,17.58
2023-02-15T10:36:41.802Z,17.74
2023-02-15T10:39:37.920Z,17.82
2023-02-15T10:42:50.345Z,17.61
2023-02-15T10:45:47.077Z,17.82
2023-02-15T10:48:40.770Z,17.93
2023-02-15T10:51:14.254Z,17.94
2023-02-15T10:53:53.780Z,17.70
2023-02-15T10:56:27.479Z,17.80
2023-02-15T10:59:24.416Z,17.97
2023-02-15T11:01:56.587Z,17.72
2023-02-15T11:04:39.161Z,17.81
2023-02-15T11:07:22.854Z,17.55
2023-02-15T11:10:17.456Z,17.62
2023-02-15T11:12:48.259Z,17.89
2023-02-15T11:15:52.569Z,18.02
2023-02-15T11:18:47.940Z,17.66
2023-02-15T11:21:27.774Z,17.96
2023-02-15T11:23:57.451Z,17.92
2023-02-15T11:26:49.462Z,17.55
2023-02-15T11:30:00.877Z,17.70
2023-02-15T11:32:33.900Z,17.96
2023-02-15T11:35:28.196Z,17.85
2023-02-15T11:38:18.157Z,17.64
2023-02-15T11:41:13.815Z,18.04
2023-02-15T11:43:46.275Z,17.98
2023-02-15T11:46:17.410Z,18.04
2023-02-15T11:48:47.141Z,18.03
2023-02-15T11:51:19.373Z,18.00
2023-02-15T11:53:49.168Z,17.81
2023-02-15T11:56:20.817Z,17.98
2023-02-15T11:58:56.440Z,18.05
2023-02-15T12:01:45.683Z,18.11
2023-02-15T12:04:35.988Z,18.08
2023-02-15T12:07:23.364Z,17.91
2023-02-15T12:10:06.908Z,17.83
2023-02-15T12:12:39.926Z,17.80
2023-02-15T12:15:13.445Z,18.04
2023-02-15T12:17:53.283Z,18.19
2023-02-15T12:20:22.937Z,18.00
2023-02-15T12:22:54.005Z,18.33
2023-02-15T12:25:49.482Z,17.80
2023-02-15T12:28:33.846Z,17.77
2023-02-15T12:31:04.799Z,18.12
2023-02-15T12:33:48.201Z,18.15
2023-02-15T12:36:17.766Z,17.87
2023-02-15T12:39:03.420Z,18.21
2023-02-15T12:41:33.105Z,18.29
2023-02-15T12:44:33.130Z,17.93
2023-02-15T12:47:03.943Z,17.84
2023-02-15T12:49:37.842Z,17.91
2023-02-15T12:52:11.978Z,17.90
2023-02-15T12:54:43.194Z,18.19
2023-02-15T12:57:39.128Z,18.26
2023-02-15T13:00:30.445Z,18.29
2023-02-15T13:03:00.449Z,18.19
2023-02-15T13:05:41.734Z,17.91
2023-02-15T13:08:23.078Z,18.08
2023-02-15T13:11:03.463Z,17.92
2023-02-15T13:13:38.498Z,18.16
2023-02-15T13:16:14.813Z,18.25
2023-02-15T13:18:48.847Z,18.10
2023-02-15T13:21:23.654Z,18.20
2023-02-15T13:24:01.204Z,18.27
2023-02-15T13:26:37.304Z,17.87
2023-02-15T13:29:21.453Z,18.15
2023-02-15T13:31:51.494Z,18.19
2023-02-15T13:34:37.066Z,18.26
2023-02-15T13:37:11.373Z,18.34
2023-02-15T13:39:44.078Z,18.35
2023-02-15T13:42:49.081Z,18.07
2023-02-15T13:45:36.949Z,17.96
2023-02-15T13:48:45.672Z,18.48
2023-02-15T13:51:33.868Z,17.90
2023-02-15T13:54:18.739Z,18.27
2023-02-15T13:57:09.616Z,18.09
2023-02-15T13:59:48.485Z,18.42
2023-02-15T14:02:42.561Z,18.07
2023-02-15T14:05:37.373Z,18.04
2023-02-15T14:08:19.067Z,18.31
2023-02-15T14:11:29.675Z,18.44
2023-02-15T14:14:05.381Z,18.42
2023-02-15T14:16:48.044Z,18.16
2023-02-15T14:19:44.703Z,18.50
2023-02-15T14:22:29.494Z,17.95
2023-02-15T14:25:17.489Z,18.11
2023-02-15T14:27:56.728Z,18.43
2023-02-15T14:30:36.119Z,18.51
2023-02-15T14:33:12.498Z,18.60
2023-02-15T14:35:42.087Z,17.96
2023-02-15T14:38:29.143Z,18.05
2023-02-15T14:41:04.899Z,18.17
2023-02-15T14:43:44.718Z,18.55
2023-02-15T14:46:34.048Z,18.29
2023-02-15T14:49:27.858Z,18.27
2023-02-15T14:52:00.525Z,18.43
2023-02-15T14:54:32.802Z,18.42
2023-02-15T14:57:08.931Z,18.11
2023-02-15T14:59:50.668Z,18.41
2023-02-15T15:02:34.865Z,18.52
2023-02-15T15:05:19.600Z,18.45
2023-02-15T15:07:59.792Z,18.26
2023-02-15T15:10:29.398Z,18.18
2023-02-15T15:13:02.496Z,18.18
2023-02-15T15:15:34.921Z,18.63
2023-02-15T15:18:06.752Z,18.54
2023-02-15T15:20:52.398Z,18.04
2023-02-15T15:23:22.101Z,18.18
2023-02-15T15:26:01.634Z,18.48
2023-02-15T15:28:37.689Z,18.09
2023-02-15T15:31:22.177Z,18.62
2023-02-15T15:34:05.436Z,18.41
2023-02-15T15:36:59.194Z,18.34
2023-02-15T15:39:53.292Z,18.90
2023-02-15T15:42:58.092Z,18.25
2023-02-15T15:45:39.577Z,18.15
2023-02-15T15:48:14.894Z,18.34
2023-02-15T15:50:44.750Z,18.33
2023-02-15T15:53:31.996Z,18.13
2023-02-15T15:56:08.766Z,18.24
2023-02-15T15:58:38.526Z,18.50
2023-02-15T16:01:14.095Z,18.57
2023-02-15T16:03:54.242Z,18.00
2023-02-15T16:06:49.838Z,18.22
2023-02-15T16:09:26.386Z,18.59
2023-02-15T16:12:05.108Z,18.18
2023-02-15T16:14:38.144Z,18.71
2023-02-15T16:17:09.342Z,18.46
2023-02-15T16:19:41.222Z,17.92
2023-02-15T16:22:34.787Z,18.73
2023-02-15T16:25:26.534Z,18.71
2023-02-15T16:27:56.209Z,18.57
2023-02-15T16:30:32.104Z,18.75
2023-02-15T16:33:15.350Z,18.50
2023-02-15T16:36:10.326Z,18.21
2023-02-15T16:38:42.155Z,18.19
2023-02-15T16:41:23.391Z,18.45
2023-02-15T16:43:53.650Z,18.20
2023-02-15T16:46:35.126Z,18.64
2023-02-15T16:49:10.989Z,18.32
2023-02-15T16:51:40.731Z,18.43
2023-02-15T16:54:11.497Z,18.72
2023-02-15T16:56:43.472Z,18.91
2023-02-15T16:59:37.085Z,18.63
2023-02-15T17:02:23.606Z,18.50
2023-02-15T17:05:18.276Z,18.48
2023-02-15T17:07:55.130Z,18.16
2023-02-15T17:10:33.606Z,18.28
2023-02-15T17:13:08.525Z,18.22
2023-02-15T17:15:41.899Z,18.92
2023-02-15T17:18:24.919Z,18.29
2023-02-15T17:20:56.561Z,18.39
2023-02-15T17:23:32.203Z,18.33
2023-02-15T17:26:03.406Z,18.48
2023-02-15T17:28:33.963Z,18.48
2023-02-15T17:31:04.086Z,18.33
2023-02-15T17:33:36.981Z,18.37
2023-02-15T17:36:14.286Z,18.83
2023-02-15T17:39:01.830Z,18.59
2023-02-15T17:41:36.749Z,18.54
2023-02-15T17:44:06.818Z,18.54
2023-02-15T17:46:38.135Z,18.88
2023-02-15T17:49:08.031Z,19.00
2023-02-15T17:51:37.675Z,18.42
2023-02-15T17:54:25.650Z,18.62
2023-02-15T17:56:55.402Z,18.44
2023-02-15T17:59:25.624Z,19.02
2023-02-15T18:02:13.375Z,18.78
2023-02-15T18:05:01.026Z,18.64
2023-02-15T18:07:48.573Z,18.35
2023-02-15T18:10:39.981Z,18.87
2023-02-15T18:13:09.661Z,19.15
2023-02-15T18:15:42.097Z,19.12
2023-02-15T18:18:12.738Z,18.46
2023-02-15T18:20:43.493Z,19.27
2023-02-15T18:23:21.986Z,19.19
2023-02-15T18:25:51.721Z,18.40
2023-02-15T18:28:21.398Z,18.96
2023-02-15T18:30:54.001Z,18.97
2023-02-15T18:33:40.534Z,19.27
2023-02-15T18:36:11.435Z,18.60
2023-02-15T18:38:41.163Z,19.15
2023-02-15T18:41:11.962Z,19.45
2023-02-15T18:43:41.734Z,18.79
2023-02-15T18:46:11.430Z,19.07
2023-02-15T18:48:41.208Z,18.69
2023-02-15T18:51:23.911Z,18.50
2023-02-15T18:53:54.638Z,18.66
2023-02-15T18:56:24.976Z,19.24
2023-02-15T18:58:55.450Z,18.69
2023-02-15T19:01:25.165Z,18.63
2023-02-15T19:03:57.812Z,18.99
2023-02-15T19:06:27.593Z,18.78
2023-02-15T19:08:57.365Z,19.30
2023-02-15T19:11:28.533Z,19.29
2023-02-15T19:13:58.964Z,19.09
2023-02-15T19:16:36.740Z,19.24
2023-02-15T19:19:09.188Z,19.10
2023-02-15T19:21:38.882Z,19.65
2023-02-15T19:24:10.706Z,19.09
2023-02-15T19:26:45.624Z,19.46
2023-02-15T19:29:16.788Z,19.49
2023-02-15T19:31:46.725Z,19.14
2023-02-15T19:34:20.623Z,18.78
2023-02-15T19:36:51.093Z,19.49
2023-02-15T19:39:31.421Z,19.26
2023-02-15T19:42:01.151Z,19.64
2023-02-15T19:44:30.914Z,18.80
2023-02-15T19:47:00.560Z,19.33
2023-02-15T19:49:31.114Z,19.05
2023-02-15T19:52:00.921Z,19.35
2023-02-15T19:54:37.272Z,19.26
2023-02-15T19:57:07.097Z,19.65
2023-02-15T19:59:36.828Z,19.66
2023-02-15T20:02:06.915Z,19.04
2023-02-15T20:04:36.633Z,18.94
2023-02-15T20:07:06.336Z,19.37
2023-02-15T20:09:37.018Z,19.20
2023-02-15T20:12:12.559Z,19.27
2023-02-15T20:14:44.211Z,19.34
2023-02-15T20:17:13.818Z,19.15
2023-02-15T20:19:43.453Z,19.25
2023-02-15T20:22:28.718Z,19.22
2023-02-15T20:24:58.582Z,19.30
2023-02-15T20:27:28.680Z,19.31
2023-02-15T20:29:58.633Z,19.17
2023-02-15T20:32:28.462Z,19.41
2023-02-15T20:34:58.363Z,19.85
2023-02-15T20:37:32.348Z,19.38
2023-02-15T20:40:03.439Z,20.25
2023-02-15T20:42:33.148Z,20.06
2023-02-15T20:45:04.522Z,20.17
2023-02-15T20:47:34.140Z,19.94
2023-02-15T20:50:06.713Z,20.72
2023-02-15T20:55:26.215Z,19.96
2023-02-15T20:57:56.072Z,20.09
2023-02-15T21:00:27.920Z,19.42
2023-02-15T21:03:02.120Z,19.68
2023-02-15T21:05:35.186Z,19.46
2023-02-15T21:08:08.238Z,20.53
2023-02-15T21:10:37.954Z,20.70
2023-02-15T21:13:10.919Z,21.23
2023-02-15T21:15:44.087Z,22.21
2023-02-15T21:18:20.881Z,21.83
2023-02-15T21:20:54.720Z,21.63
2023-02-15T21:23:27.424Z,22.07
2023-02-15T21:26:02.756Z,22.08
2023-02-15T21:28:32.639Z,21.90
2023-02-15T21:31:05.237Z,21.64
2023-02-15T21:33:35.203Z,21.61
2023-02-15T21:36:04.930Z,21.77
2023-02-15T21:38:35.010Z,21.43
2023-02-15T21:41:24.392Z,21.17
2023-02-15T21:44:15.361Z,21.14
2023-02-15T21:47:02.995Z,21.19
2023-02-15T21:49:32.825Z,21.22
2023-02-15T21:52:14.127Z,21.08
2023-02-15T21:54:43.896Z,21.11
2023-02-15T21:57:17.061Z,20.98
2023-02-15T21:59:51.151Z,20.78
2023-02-15T22:02:31.124Z,20.59
2023-02-15T22:05:02.150Z,20.40
2023-02-15T22:07:31.735Z,20.91
2023-02-15T22:10:04.919Z,20.10
2023-02-15T22:12:34.701Z,20.11
2023-02-15T22:15:04.389Z,19.94
2023-02-15T22:17:38.744Z,19.85
2023-02-15T22:20:15.552Z,19.99
2023-02-15T22:22:45.272Z,19.68
2023-02-15T22:25:22.362Z,19.41
2023-02-15T22:27:52.575Z,19.60
2023-02-15T22:30:31.108Z,19.14
2023-02-15T22:33:01.421Z,19.57
2023-02-15T22:35:32.868Z,19.70
2023-02-15T22:38:02.698Z,19.52
2023-02-15T22:40:34.633Z,18.52
2023-02-15T22:43:09.177Z,19.03
2023-02-15T22:45:38.970Z,18.55
2023-02-15T22:48:12.711Z,19.07
2023-02-15T22:50:42.336Z,18.70
2023-02-15T22:53:14.862Z,18.21
2023-02-15T22:55:44.620Z,18.81
2023-02-15T22:58:20.597Z,18.77
2023-02-15T23:00:50.273Z,18.71
2023-02-15T23:03:22.602Z,18.55
2023-02-15T23:05:52.512Z,18.01
2023-02-15T23:08:22.548Z,18.22
2023-02-15T23:10:58.539Z,18.53
2023-02-15T23:13:32.192Z,18.44
2023-02-15T23:16:03.238Z,18.24
2023-02-15T23:18:40.901Z,18.61
2023-02-15T23:21:32.641Z,18.59
2023-02-15T23:24:25.877Z,18.66
2023-02-15T23:26:56.588Z,18.43
2023-02-15T23:29:27.367Z,18.04
2023-02-15T23:32:01.565Z,18.65
2023-02-15T23:34:38.011Z,18.59
2023-02-15T23:37:07.739Z,17.75
2023-02-15T23:39:55.632Z,18.82
2023-02-15T23:42:32.978Z,17.78
2023-02-15T23:45:02.936Z,18.63
2023-02-15T23:47:51.474Z,18.56
2023-02-15T23:50:22.675Z,18.39
2023-02-15T23:52:52.937Z,17.92
2023-02-15T23:55:22.923Z,18.31
2023-02-15T23:57:52.769Z,17.84
